LFOO LFBH LFFK LFOO.pdf


Aperçu du fichier PDF lfoo-lfbh-lffk-lfoo.pdf - page 1/8

Page 1 2 3 4 5 6 7 8


Aperçu texte


LFOO : Les Sables
ATIS : --

SOL : --

A/A : --

H bloc :

H d/L :

APP : --

SIV : 122.8

METAR : Pas de METAR disponible

LFOO
46°28'32'' N
001°43'30'' W

1

Point 1

46°12'26'' N
001°21'50'' W

Dist

ETE

Cm

Vent

ΔVp

Z vol

(Nm)

(min)

Rm

(°/kts)

(kts)

Z secu

23

08' 138°

000°
00

0

1600

8

03' 104°

000°
00

0

1600

138°
104°

HE / HR

R-Nav, div.

0
0

LFBH
46°10'45'' N
001°11'43'' W

Distance : 30 Nm

Temps : 09'

LFBH : La Rochelle
ATIS : 126.875

SOL : --

TWR : 118

Avion démo

VP: 180 kts

H att :

H bloc :

APP : 124.2

SIV : 120.125

METAR : LFBH 011600Z AUTO 23021KT 9000 -RA FEW017 OVC058 12/10 Q1011 TEMPO 4000 RA BKN006 OVC011=

01/03 17h19

FB: 0.33 min/Nm